sensor_id;sensor_type;location;lat;lon;timestamp;pressure;altitude;pressure_sealevel;temperature;humidity
58955;BME280;45815;52.334;5.024;2023-07-29T00:01:52;100753.38;;;18.55;100.00
58955;BME280;45815;52.334;5.024;2023-07-29T00:04:19;100753.28;;;18.60;100.00
58955;BME280;45815;52.334;5.024;2023-07-29T00:06:45;100745.25;;;18.63;100.00
58955;BME280;45815;52.334;5.024;2023-07-29T00:09:11;100738.19;;;18.62;100.00
58955;BME280;45815;52.334;5.024;2023-07-29T00:11:36;100734.75;;;18.57;100.00
58955;BME280;45815;52.334;5.024;2023-07-29T00:14:01;100726.72;;;18.59;100.00
58955;BME280;45815;52.334;5.024;2023-07-29T00:16:27;100732.09;;;18.55;100.00
58955;BME280;45815;52.334;5.024;2023-07-29T00:18:53;100725.13;;;18.48;100.00
58955;BME280;45815;52.334;5.024;2023-07-29T00:21:18;100738.34;;;18.53;100.00
58955;BME280;45815;52.334;5.024;2023-07-29T00:23:45;100729.44;;;18.54;100.00
58955;BME280;45815;52.334;5.024;2023-07-29T00:26:10;100727.72;;;18.51;100.00
58955;BME280;45815;52.334;5.024;2023-07-29T00:28:35;100725.13;;;18.50;100.00
58955;BME280;45815;52.334;5.024;2023-07-29T00:31:01;100725.97;;;18.52;100.00
58955;BME280;45815;52.334;5.024;2023-07-29T00:33:27;100710.97;;;18.48;100.00
58955;BME280;45815;52.334;5.024;2023-07-29T00:35:52;100708.38;;;18.42;100.00
58955;BME280;45815;52.334;5.024;2023-07-29T00:38:18;100707.44;;;18.46;100.00
58955;BME280;45815;52.334;5.024;2023-07-29T00:40:44;100714.44;;;18.51;100.00
58955;BME280;45815;52.334;5.024;2023-07-29T00:43:09;100710.91;;;18.51;100.00
58955;BME280;45815;52.334;5.024;2023-07-29T00:45:35;100703.78;;;18.53;100.00
58955;BME280;45815;52.334;5.024;2023-07-29T00:48:02;100701.94;;;18.56;100.00
58955;BME280;45815;52.334;5.024;2023-07-29T00:50:31;100700.19;;;18.57;100.00
58955;BME280;45815;52.334;5.024;2023-07-29T00:52:59;100694.88;;;18.55;100.00
58955;BME280;45815;52.334;5.024;2023-07-29T00:55:24;100693.13;;;18.54;100.00
58955;BME280;45815;52.334;5.024;2023-07-29T00:57:51;100692.22;;;18.57;100.00
58955;BME280;45815;52.334;5.024;2023-07-29T01:00:19;100690.41;;;18.59;100.00
58955;BME280;45815;52.334;5.024;2023-07-29T01:02:45;100695.75;;;18.58;100.00
58955;BME280;45815;52.334;5.024;2023-07-29T01:05:13;100684.19;;;18.59;100.00
58955;BME280;45815;52.334;5.024;2023-07-29T01:10:39;100685.97;;;18.58;100.00
58955;BME280;45815;52.334;5.024;2023-07-29T01:13:15;100676.19;;;18.60;100.00
58955;BME280;45815;52.334;5.024;2023-07-29T01:15:54;100672.63;;;18.61;100.00
58955;BME280;45815;52.334;5.024;2023-07-29T01:18:26;100677.94;;;18.61;100.00
58955;BME280;45815;52.334;5.024;2023-07-29T01:20:54;100677.84;;;18.67;100.00
58955;BME280;45815;52.334;5.024;2023-07-29T01:23:26;100680.50;;;18.67;100.00
58955;BME280;45815;52.334;5.024;2023-07-29T01:25:54;100686.75;;;18.66;100.00
58955;BME280;45815;52.334;5.024;2023-07-29T01:28:19;100683.16;;;18.67;100.00
58955;BME280;45815;52.334;5.024;2023-07-29T01:30:49;100681.44;;;18.65;100.00
58955;BME280;45815;52.334;5.024;2023-07-29T01:33:23;100693.13;;;18.54;100.00
58955;BME280;45815;52.334;5.024;2023-07-29T01:36:07;100680.88;;;18.46;100.00
58955;BME280;45815;52.334;5.024;2023-07-29T01:38:38;100683.44;;;18.52;100.00
58955;BME280;45815;52.334;5.024;2023-07-29T01:41:08;100679.88;;;18.53;100.00
58955;BME280;45815;52.334;5.024;2023-07-29T01:43:34;100671.84;;;18.56;100.00
58955;BME280;45815;52.334;5.024;2023-07-29T01:46:05;100673.63;;;18.55;100.00
58955;BME280;45815;52.334;5.024;2023-07-29T01:48:31;100663.91;;;18.53;100.00
58955;BME280;45815;52.334;5.024;2023-07-29T01:50:57;100649.84;;;18.45;100.00
58955;BME280;45815;52.334;5.024;2023-07-29T01:53:22;100667.53;;;18.49;100.00
58955;BME280;45815;52.334;5.024;2023-07-29T01:55:48;100667.59;;;18.46;100.00
58955;BME280;45815;52.334;5.024;2023-07-29T01:58:14;100662.31;;;18.43;100.00
58955;BME280;45815;52.334;5.024;2023-07-29T02:00:44;100658.81;;;18.41;100.00
58955;BME280;45815;52.334;5.024;2023-07-29T02:03:10;100653.44;;;18.42;100.00
58955;BME280;45815;52.334;5.024;2023-07-29T02:05:35;100658.69;;;18.47;100.00
58955;BME280;45815;52.334;5.024;2023-07-29T02:08:01;100658.75;;;18.42;100.00
58955;BME280;45815;52.334;5.024;2023-07-29T02:10:27;100651.69;;;18.43;100.00
58955;BME280;45815;52.334;5.024;2023-07-29T02:12:53;100655.25;;;18.42;100.00
58955;BME280;45815;52.334;5.024;2023-07-29T02:15:18;100657.88;;;18.43;100.00
58955;BME280;45815;52.334;5.024;2023-07-29T02:17:44;100655.38;;;18.32;100.00
58955;BME280;45815;52.334;5.024;2023-07-29T02:20:10;100648.34;;;18.28;100.00
58955;BME280;45815;52.334;5.024;2023-07-29T02:22:36;100643.03;;;18.28;100.00
58955;BME280;45815;52.334;5.024;2023-07-29T02:25:02;100646.66;;;18.24;100.00
58955;BME280;45815;52.334;5.024;2023-07-29T02:27:28;100653.84;;;18.19;100.00
58955;BME280;45815;52.334;5.024;2023-07-29T02:29:54;100654.00;;;18.07;100.00
58955;BME280;45815;52.334;5.024;2023-07-29T02:32:20;100653.13;;;18.08;100.00
58955;BME280;45815;52.334;5.024;2023-07-29T02:34:46;100652.31;;;18.03;100.00
58955;BME280;45815;52.334;5.024;2023-07-29T02:37:11;100654.06;;;18.02;100.00
58955;BME280;45815;52.334;5.024;2023-07-29T02:39:37;100655.88;;;18.00;100.00
58955;BME280;45815;52.334;5.024;2023-07-29T02:42:03;100666.56;;;17.96;100.00
58955;BME280;45815;52.334;5.024;2023-07-29T02:44:29;100657.75;;;17.93;100.00
58955;BME280;45815;52.334;5.024;2023-07-29T02:46:54;100658.56;;;17.97;100.00
58955;BME280;45815;52.334;5.024;2023-07-29T02:49:21;100653.25;;;17.97;100.00
58955;BME280;45815;52.334;5.024;2023-07-29T02:51:47;100661.28;;;17.94;100.00
58955;BME280;45815;52.334;5.024;2023-07-29T02:54:12;100663.06;;;17.92;100.00
58955;BME280;45815;52.334;5.024;2023-07-29T02:56:38;100657.81;;;17.89;100.00
58955;BME280;45815;52.334;5.024;2023-07-29T02:59:03;100650.81;;;17.83;100.00
58955;BME280;45815;52.334;5.024;2023-07-29T03:01:29;100656.09;;;17.86;100.00
58955;BME280;45815;52.334;5.024;2023-07-29T03:03:55;100649.00;;;17.85;100.00
58955;BME280;45815;52.334;5.024;2023-07-29T03:06:20;100648.13;;;17.85;100.00
58955;BME280;45815;52.334;5.024;2023-07-29T03:08:46;100640.16;;;17.86;100.00
58955;BME280;45815;52.334;5.024;2023-07-29T03:11:13;100641.03;;;17.85;100.00
58955;BME280;45815;52.334;5.024;2023-07-29T03:13:39;100633.13;;;17.82;100.00
58955;BME280;45815;52.334;5.024;2023-07-29T03:16:15;100631.38;;;17.78;100.00
58955;BME280;45815;52.334;5.024;2023-07-29T03:18:48;100630.50;;;17.76;100.00
58955;BME280;45815;52.334;5.024;2023-07-29T03:21:13;100634.03;;;17.77;100.00
58955;BME280;45815;52.334;5.024;2023-07-29T03:23:39;100638.47;;;17.78;100.00
58955;BME280;45815;52.334;5.024;2023-07-29T03:26:04;100621.66;;;17.77;100.00
58955;BME280;45815;52.334;5.024;2023-07-29T03:28:42;100626.13;;;17.75;100.00
58955;BME280;45815;52.334;5.024;2023-07-29T03:31:08;100623.47;;;17.75;100.00
58955;BME280;45815;52.334;5.024;2023-07-29T03:33:34;100626.13;;;17.75;100.00
58955;BME280;45815;52.334;5.024;2023-07-29T03:36:00;100607.59;;;17.69;100.00
58955;BME280;45815;52.334;5.024;2023-07-29T03:38:26;100634.03;;;17.78;100.00
58955;BME280;45815;52.334;5.024;2023-07-29T03:40:51;100620.81;;;17.75;100.00
58955;BME280;45815;52.334;5.024;2023-07-29T03:43:17;100623.47;;;17.75;100.00
58955;BME280;45815;52.334;5.024;2023-07-29T03:45:42;100631.44;;;17.75;100.00
58955;BME280;45815;52.334;5.024;2023-07-29T03:48:08;100627.00;;;17.76;100.00
58955;BME280;45815;52.334;5.024;2023-07-29T03:50:35;100631.38;;;17.77;100.00
58955;BME280;45815;52.334;5.024;2023-07-29T03:53:04;100647.31;;;17.77;100.00
58955;BME280;45815;52.334;5.024;2023-07-29T03:55:30;100636.88;;;17.63;100.00
58955;BME280;45815;52.334;5.024;2023-07-29T03:57:59;100656.25;;;17.71;100.00
58955;BME280;45815;52.334;5.024;2023-07-29T04:00:25;100653.59;;;17.69;100.00
58955;BME280;45815;52.334;5.024;2023-07-29T04:02:51;100645.63;;;17.71;100.00
58955;BME280;45815;52.334;5.024;2023-07-29T04:05:17;100651.75;;;17.76;100.00
58955;BME280;45815;52.334;5.024;2023-07-29T04:07:43;100651.75;;;17.75;100.00
58955;BME280;45815;52.334;5.024;2023-07-29T04:10:09;100648.22;;;17.74;100.00
58955;BME280;45815;52.334;5.024;2023-07-29T04:12:34;100632.31;;;17.74;100.00
58955;BME280;45815;52.334;5.024;2023-07-29T04:15:00;100637.66;;;17.72;100.00
58955;BME280;45815;52.334;5.024;2023-07-29T04:17:25;100641.19;;;17.71;100.00
58955;BME280;45815;52.334;5.024;2023-07-29T04:19:51;100644.72;;;17.73;100.00
58955;BME280;45815;52.334;5.024;2023-07-29T04:22:18;100650.03;;;17.73;100.00
58955;BME280;45815;52.334;5.024;2023-07-29T04:24:43;100650.94;;;17.71;100.00
58955;BME280;45815;52.334;5.024;2023-07-29T04:27:09;100652.69;;;17.72;100.00
58955;BME280;45815;52.334;5.024;2023-07-29T04:29:35;100654.47;;;17.71;100.00
58955;BME280;45815;52.334;5.024;2023-07-29T04:32:04;100644.78;;;17.67;100.00
58955;BME280;45815;52.334;5.024;2023-07-29T04:34:30;100655.44;;;17.66;100.00
58955;BME280;45815;52.334;5.024;2023-07-29T04:36:55;100646.53;;;17.70;100.00
58955;BME280;45815;52.334;5.024;2023-07-29T04:39:21;100651.88;;;17.68;100.00
58955;BME280;45815;52.334;5.024;2023-07-29T04:41:46;100661.66;;;17.63;100.00
58955;BME280;45815;52.334;5.024;2023-07-29T04:44:13;100648.34;;;17.65;100.00
58955;BME280;45815;52.334;5.024;2023-07-29T04:46:39;100652.81;;;17.63;100.00
58955;BME280;45815;52.334;5.024;2023-07-29T04:49:05;100656.31;;;17.65;100.00
58955;BME280;45815;52.334;5.024;2023-07-29T04:51:31;100644.91;;;17.60;100.00
58955;BME280;45815;52.334;5.024;2023-07-29T04:53:59;100655.50;;;17.60;100.00
58955;BME280;45815;52.334;5.024;2023-07-29T04:56:25;100648.47;;;17.59;100.00
58955;BME280;45815;52.334;5.024;2023-07-29T04:58:51;100656.31;;;17.65;100.00
58955;BME280;45815;52.334;5.024;2023-07-29T05:01:17;100649.22;;;17.67;100.00
58955;BME280;45815;52.334;5.024;2023-07-29T05:03:43;100658.97;;;17.68;100.00
58955;BME280;45815;52.334;5.024;2023-07-29T05:06:09;100668.59;;;17.72;100.00
58955;BME280;45815;52.334;5.024;2023-07-29T05:08:34;100661.50;;;17.77;100.00
58955;BME280;45815;52.334;5.024;2023-07-29T05:11:00;100648.22;;;17.74;100.00
58955;BME280;45815;52.334;5.024;2023-07-29T05:13:26;100654.38;;;17.82;100.00
58955;BME280;45815;52.334;5.024;2023-07-29T05:15:51;100658.75;;;17.86;100.00
58955;BME280;45815;52.334;5.024;2023-07-29T05:18:17;100664.94;;;17.85;100.00
58955;BME280;45815;52.334;5.024;2023-07-29T05:20:43;100664.94;;;17.85;100.00
58955;BME280;45815;52.334;5.024;2023-07-29T05:23:08;100664.94;;;17.85;100.00
58955;BME280;45815;52.334;5.024;2023-07-29T05:25:34;100657.78;;;17.90;100.00
58955;BME280;45815;52.334;5.024;2023-07-29T05:28:03;100663.06;;;17.93;100.00
58955;BME280;45815;52.334;5.024;2023-07-29T05:30:29;100655.94;;;17.96;100.00
58955;BME280;45815;52.334;5.024;2023-07-29T05:32:59;100658.47;;;18.05;100.00
58955;BME280;45815;52.334;5.024;2023-07-29T05:35:25;100659.38;;;18.04;100.00
58955;BME280;45815;52.334;5.024;2023-07-29T05:37:50;100660.19;;;18.07;100.00
58955;BME280;45815;52.334;5.024;2023-07-29T05:40:16;100662.97;;;18.00;100.00
58955;BME280;45815;52.334;5.024;2023-07-29T05:42:42;100662.03;;;18.02;100.00
58955;BME280;45815;52.334;5.024;2023-07-29T05:45:09;100657.66;;;18.00;100.00
58955;BME280;45815;52.334;5.024;2023-07-29T05:47:35;100655.78;;;18.06;100.00
58955;BME280;45815;52.334;5.024;2023-07-29T05:50:00;100658.38;;;18.11;100.00
58955;BME280;45815;52.334;5.024;2023-07-29T05:52:32;100657.44;;;18.13;100.00
58955;BME280;45815;52.334;5.024;2023-07-29T05:54:57;100658.28;;;18.17;100.00
58955;BME280;45815;52.334;5.024;2023-07-29T05:57:23;100663.47;;;18.26;100.00
58955;BME280;45815;52.334;5.024;2023-07-29T05:59:48;100646.56;;;18.30;100.00
58955;BME280;45815;52.334;5.024;2023-07-29T06:02:14;100659.69;;;18.41;100.00
58955;BME280;45815;52.334;5.024;2023-07-29T06:04:39;100653.50;;;18.41;100.00
58955;BME280;45815;52.334;5.024;2023-07-29T06:07:06;100656.88;;;18.52;100.00
58955;BME280;45815;52.334;5.024;2023-07-29T06:09:32;100650.56;;;18.58;100.00
58955;BME280;45815;52.334;5.024;2023-07-29T06:11:57;100655.66;;;18.70;100.00
58955;BME280;45815;52.334;5.024;2023-07-29T06:14:23;100648.50;;;18.73;100.00
58955;BME280;45815;52.334;5.024;2023-07-29T06:16:48;100658.19;;;18.79;100.00
58955;BME280;45815;52.334;5.024;2023-07-29T06:19:13;100655.53;;;18.79;100.00
58955;BME280;45815;52.334;5.024;2023-07-29T06:21:40;100663.50;;;18.79;100.00
58955;BME280;45815;52.334;5.024;2023-07-29T06:24:06;100664.44;;;18.76;100.00
58955;BME280;45815;52.334;5.024;2023-07-29T06:26:31;100661.78;;;18.76;100.00
58955;BME280;45815;52.334;5.024;2023-07-29T06:28:57;100660.75;;;18.84;100.00
58955;BME280;45815;52.334;5.024;2023-07-29T06:31:22;100671.34;;;18.87;100.00
58955;BME280;45815;52.334;5.024;2023-07-29T06:33:47;100671.25;;;18.91;100.00
58955;BME280;45815;52.334;5.024;2023-07-29T06:36:13;100671.22;;;18.94;100.00
58955;BME280;45815;52.334;5.024;2023-07-29T06:38:39;100673.97;;;18.90;100.00
58955;BME280;45815;52.334;5.024;2023-07-29T06:41:04;100664.19;;;18.92;100.00
58955;BME280;45815;52.334;5.024;2023-07-29T06:43:30;100673.78;;;18.99;100.00
58955;BME280;45815;52.334;5.024;2023-07-29T06:45:56;100673.81;;;18.96;100.00
58955;BME280;45815;52.334;5.024;2023-07-29T06:48:21;100667.56;;;18.98;100.00
58955;BME280;45815;52.334;5.024;2023-07-29T06:50:47;100679.13;;;18.99;100.00
58955;BME280;45815;52.334;5.024;2023-07-29T06:53:12;100676.41;;;19.01;100.00
58955;BME280;45815;52.334;5.024;2023-07-29T06:55:38;100677.31;;;19.01;100.00
58955;BME280;45815;52.334;5.024;2023-07-29T06:58:04;100681.63;;;19.05;100.00
58955;BME280;45815;52.334;5.024;2023-07-29T07:00:29;100681.59;;;19.08;100.00
58955;BME280;45815;52.334;5.024;2023-07-29T07:02:55;100686.75;;;19.17;100.00
58955;BME280;45815;52.334;5.024;2023-07-29T07:05:20;100676.94;;;19.19;100.00
58955;BME280;45815;52.334;5.024;2023-07-29T07:07:46;100687.41;;;19.29;100.00
58955;BME280;45815;52.334;5.024;2023-07-29T07:10:11;100675.88;;;19.30;100.00
58955;BME280;45815;52.334;5.024;2023-07-29T07:12:37;100666.00;;;19.35;100.00
58955;BME280;45815;52.334;5.024;2023-07-29T07:15:02;100665.97;;;19.36;100.00
58955;BME280;45815;52.334;5.024;2023-07-29T07:17:28;100664.88;;;19.47;100.00
58955;BME280;45815;52.334;5.024;2023-07-29T07:19:53;100671.81;;;19.55;100.00
58955;BME280;45815;52.334;5.024;2023-07-29T07:22:19;100671.50;;;19.71;100.00
58955;BME280;45815;52.334;5.024;2023-07-29T07:24:44;100670.44;;;19.79;100.00
58955;BME280;45815;52.334;5.024;2023-07-29T07:27:10;100663.22;;;19.85;100.00
58955;BME280;45815;52.334;5.024;2023-07-29T07:29:35;100666.53;;;19.96;100.00
58955;BME280;45815;52.334;5.024;2023-07-29T07:32:00;100664.53;;;20.06;100.00
58955;BME280;45815;52.334;5.024;2023-07-29T07:34:26;100670.47;;;20.18;100.00
58955;BME280;45815;52.334;5.024;2023-07-29T07:36:51;100658.84;;;20.21;100.00
58955;BME280;45815;52.334;5.024;2023-07-29T07:39:17;100664.97;;;20.24;100.00
58955;BME280;45815;52.334;5.024;2023-07-29T07:41:42;100672.13;;;20.22;100.00
58955;BME280;45815;52.334;5.024;2023-07-29T07:44:08;100662.28;;;20.26;100.00
58955;BME280;45815;52.334;5.024;2023-07-29T07:46:34;100657.78;;;20.28;100.00
58955;BME280;45815;52.334;5.024;2023-07-29T07:48:59;100670.25;;;20.28;100.00
58955;BME280;45815;52.334;5.024;2023-07-29T07:51:25;100668.44;;;20.28;100.00
58955;BME280;45815;52.334;5.024;2023-07-29T07:53:50;100666.88;;;20.18;100.00
58955;BME280;45815;52.334;5.024;2023-07-29T07:56:15;100680.22;;;20.18;100.00
58955;BME280;45815;52.334;5.024;2023-07-29T07:58:41;100682.19;;;20.10;100.00
58955;BME280;45815;52.334;5.024;2023-07-29T08:01:08;100684.00;;;20.08;100.00
58955;BME280;45815;52.334;5.024;2023-07-29T08:03:34;100684.13;;;20.01;100.00
58955;BME280;45815;52.334;5.024;2023-07-29T08:06:00;100686.25;;;19.87;100.00
58955;BME280;45815;52.334;5.024;2023-07-29T08:08:26;100682.59;;;19.91;100.00
58955;BME280;45815;52.334;5.024;2023-07-29T08:10:53;100681.00;;;19.84;100.00
58955;BME280;45815;52.334;5.024;2023-07-29T08:13:19;100691.44;;;19.93;100.00
58955;BME280;45815;52.334;5.024;2023-07-29T08:15:48;100699.22;;;20.02;100.00
58955;BME280;45815;52.334;5.024;2023-07-29T08:18:14;100686.78;;;20.03;100.00
58955;BME280;45815;52.334;5.024;2023-07-29T08:20:40;100690.31;;;20.03;100.00
58955;BME280;45815;52.334;5.024;2023-07-29T08:23:05;100700.00;;;20.08;100.00
58955;BME280;45815;52.334;5.024;2023-07-29T08:25:30;100694.53;;;20.14;100.00
58955;BME280;45815;52.334;5.024;2023-07-29T08:27:56;100692.47;;;20.25;100.00
58955;BME280;45815;52.334;5.024;2023-07-29T08:30:21;100680.13;;;20.60;100.00
58955;BME280;45815;52.334;5.024;2023-07-29T08:32:47;100683.03;;;20.86;100.00
58955;BME280;45815;52.334;5.024;2023-07-29T08:35:13;100679.41;;;20.89;100.00
58955;BME280;45815;52.334;5.024;2023-07-29T08:37:38;100676.66;;;20.91;100.00
58955;BME280;45815;52.334;5.024;2023-07-29T08:40:04;100680.50;;;20.80;100.00
58955;BME280;45815;52.334;5.024;2023-07-29T08:42:31;100683.06;;;20.85;100.00
58955;BME280;45815;52.334;5.024;2023-07-29T08:45:01;100678.59;;;20.85;100.00
58955;BME280;45815;52.334;5.024;2023-07-29T08:47:31;100677.84;;;20.80;100.00
58955;BME280;45815;52.334;5.024;2023-07-29T08:49:57;100674.28;;;20.81;100.00
58955;BME280;45815;52.334;5.024;2023-07-29T08:52:24;100672.06;;;20.97;100.00
58955;BME280;45815;52.334;5.024;2023-07-29T08:54:51;100669.09;;;21.08;100.00
58955;BME280;45815;52.334;5.024;2023-07-29T08:57:18;100682.59;;;21.02;100.00
58955;BME280;45815;52.334;5.024;2023-07-29T08:59:45;100678.34;;;20.95;100.00
58955;BME280;45815;52.334;5.024;2023-07-29T09:02:11;100682.09;;;20.87;100.00
58955;BME280;45815;52.334;5.024;2023-07-29T09:04:36;100684.00;;;20.84;100.00
58955;BME280;45815;52.334;5.024;2023-07-29T09:07:02;100691.03;;;20.86;100.00
58955;BME280;45815;52.334;5.024;2023-07-29T09:09:28;100682.19;;;20.84;100.00
58955;BME280;45815;52.334;5.024;2023-07-29T09:11:53;100689.88;;;20.95;100.00
58955;BME280;45815;52.334;5.024;2023-07-29T09:14:19;100691.75;;;20.93;100.00
58955;BME280;45815;52.334;5.024;2023-07-29T09:16:45;100692.78;;;20.87;100.00
58955;BME280;45815;52.334;5.024;2023-07-29T09:19:11;100691.03;;;20.86;100.00
58955;BME280;45815;52.334;5.024;2023-07-29T09:21:40;100694.53;;;20.89;100.00
58955;BME280;45815;52.334;5.024;2023-07-29T09:24:05;100698.00;;;20.91;100.00
58955;BME280;45815;52.334;5.024;2023-07-29T09:26:33;100700.41;;;21.01;100.00
58955;BME280;45815;52.334;5.024;2023-07-29T09:28:59;100705.25;;;21.21;100.00
58955;BME280;45815;52.334;5.024;2023-07-29T09:31:28;100695.72;;;21.44;100.00
58955;BME280;45815;52.334;5.024;2023-07-29T09:34:01;100688.22;;;21.88;100.00
58955;BME280;45815;52.334;5.024;2023-07-29T09:36:30;100683.31;;;22.02;100.00
58955;BME280;45815;52.334;5.024;2023-07-29T09:38:57;100682.59;;;21.97;100.00
58955;BME280;45815;52.334;5.024;2023-07-29T09:41:24;100678.56;;;22.12;100.00
58955;BME280;45815;52.334;5.024;2023-07-29T09:43:59;100672.91;;;22.23;100.00
58955;BME280;45815;52.334;5.024;2023-07-29T09:46:25;100675.00;;;22.11;100.00
58955;BME280;45815;52.334;5.024;2023-07-29T09:48:56;100677.69;;;22.11;100.00
58955;BME280;45815;52.334;5.024;2023-07-29T09:51:22;100669.47;;;22.18;100.00
58955;BME280;45815;52.334;5.024;2023-07-29T09:53:48;100663.19;;;22.19;100.00
58955;BME280;45815;52.334;5.024;2023-07-29T09:56:15;100668.69;;;22.14;100.00
58955;BME280;45815;52.334;5.024;2023-07-29T09:58:45;100667.56;;;22.23;100.00
58955;BME280;45815;52.334;5.024;2023-07-29T10:01:11;100661.69;;;22.10;100.00
58955;BME280;45815;52.334;5.024;2023-07-29T10:03:37;100656.56;;;22.32;100.00
58955;BME280;45815;52.334;5.024;2023-07-29T10:06:05;100668.94;;;22.63;100.00
58955;BME280;45815;52.334;5.024;2023-07-29T10:08:31;100670.75;;;22.62;100.00
58955;BME280;45815;52.334;5.024;2023-07-29T10:11:07;100676.09;;;22.87;100.00
58955;BME280;45815;52.334;5.024;2023-07-29T10:13:33;100683.09;;;22.91;100.00
58955;BME280;45815;52.334;5.024;2023-07-29T10:15:59;100683.66;;;22.76;100.00
58955;BME280;45815;52.334;5.024;2023-07-29T10:18:29;100682.00;;;22.72;100.00
58955;BME280;45815;52.334;5.024;2023-07-29T10:20:56;100678.25;;;22.51;100.00
58955;BME280;45815;52.334;5.024;2023-07-29T10:23:24;100666.00;;;22.44;100.00
58955;BME280;45815;52.334;5.024;2023-07-29T10:26:02;100665.03;;;22.46;100.00
58955;BME280;45815;52.334;5.024;2023-07-29T10:28:30;100666.56;;;22.53;100.00
58955;BME280;45815;52.334;5.024;2023-07-29T10:30:57;100669.88;;;22.62;100.00
58955;BME280;45815;52.334;5.024;2023-07-29T10:33:22;100677.91;;;22.62;100.00
58955;BME280;45815;52.334;5.024;2023-07-29T10:35:48;100683.84;;;22.70;100.00
58955;BME280;45815;52.334;5.024;2023-07-29T10:38:15;100673.34;;;22.64;100.00
58955;BME280;45815;52.334;5.024;2023-07-29T10:40:51;100679.81;;;22.57;100.00
58955;BME280;45815;52.334;5.024;2023-07-29T10:43:23;100682.31;;;22.63;100.00
58955;BME280;45815;52.334;5.024;2023-07-29T10:45:49;100684.34;;;22.54;100.00
58955;BME280;45815;52.334;5.024;2023-07-29T10:54:00;100689.19;;;22.70;100.00
58955;BME280;45815;52.334;5.024;2023-07-29T10:56:31;100672.34;;;22.66;100.00
58955;BME280;45815;52.334;5.024;2023-07-29T10:58:59;100691.84;;;22.71;100.00
58955;BME280;45815;52.334;5.024;2023-07-29T11:01:31;100685.13;;;22.58;100.00
58955;BME280;45815;52.334;5.024;2023-07-29T11:04:19;100686.22;;;22.52;100.00
58955;BME280;45815;52.334;5.024;2023-07-29T11:12:42;100691.47;;;22.27;100.00
58955;BME280;45815;52.334;5.024;2023-07-29T11:17:53;100694.56;;;22.13;100.00
58955;BME280;45815;52.334;5.024;2023-07-29T11:20:21;100686.81;;;22.04;100.00
58955;BME280;45815;52.334;5.024;2023-07-29T11:22:47;100702.13;;;21.99;100.00
58955;BME280;45815;52.334;5.024;2023-07-29T11:25:14;100697.81;;;21.93;100.00
58955;BME280;45815;52.334;5.024;2023-07-29T11:27:40;100697.66;;;22.00;100.00
58955;BME280;45815;52.334;5.024;2023-07-29T11:30:10;100691.47;;;22.27;100.00
58955;BME280;45815;52.334;5.024;2023-07-29T11:32:37;100692.34;;;22.56;100.00
58955;BME280;45815;52.334;5.024;2023-07-29T11:35:07;100686.53;;;22.70;100.00
58955;BME280;45815;52.334;5.024;2023-07-29T11:37:34;100683.97;;;22.92;100.00
58955;BME280;45815;52.334;5.024;2023-07-29T11:40:00;100677.25;;;22.80;100.00
58955;BME280;45815;52.334;5.024;2023-07-29T11:42:26;100693.63;;;22.97;100.00
58955;BME280;45815;52.334;5.024;2023-07-29T11:44:53;100684.81;;;22.94;100.00
58955;BME280;45815;52.334;5.024;2023-07-29T11:47:18;100684.28;;;23.11;100.00
58955;BME280;45815;52.334;5.024;2023-07-29T11:49:44;100677.47;;;23.26;100.00
58955;BME280;45815;52.334;5.024;2023-07-29T11:52:10;100681.72;;;23.31;100.00
58955;BME280;45815;52.334;5.024;2023-07-29T11:54:37;100684.81;;;23.21;100.00
58955;BME280;45815;52.334;5.024;2023-07-29T11:57:06;100682.88;;;22.99;100.00
58955;BME280;45815;52.334;5.024;2023-07-29T11:59:33;100684.22;;;22.86;100.00
58955;BME280;45815;52.334;5.024;2023-07-29T12:02:00;100684.53;;;22.76;100.00
58955;BME280;45815;52.334;5.024;2023-07-29T12:04:27;100677.66;;;22.68;100.00
58955;BME280;45815;52.334;5.024;2023-07-29T12:06:53;100700.00;;;22.67;100.00
58955;BME280;45815;52.334;5.024;2023-07-29T12:09:18;100704.19;;;22.47;100.00
58955;BME280;45815;52.334;5.024;2023-07-29T12:11:44;100712.53;;;22.38;100.00
58955;BME280;45815;52.334;5.024;2023-07-29T12:14:10;100715.59;;;22.26;100.00
58955;BME280;45815;52.334;5.024;2023-07-29T12:16:44;100719.63;;;22.09;100.00
58955;BME280;45815;52.334;5.024;2023-07-29T12:19:13;100722.41;;;22.06;100.00
58955;BME280;45815;52.334;5.024;2023-07-29T12:21:42;100721.72;;;22.00;100.00
58955;BME280;45815;52.334;5.024;2023-07-29T12:24:08;100727.09;;;21.98;100.00
58955;BME280;45815;52.334;5.024;2023-07-29T12:26:35;100729.50;;;22.07;100.00
58955;BME280;45815;52.334;5.024;2023-07-29T12:29:14;100714.47;;;22.33;100.00
58955;BME280;45815;52.334;5.024;2023-07-29T12:31:40;100707.13;;;22.66;100.00
58955;BME280;45815;52.334;5.024;2023-07-29T12:34:06;100701.53;;;23.02;100.00
58955;BME280;45815;52.334;5.024;2023-07-29T12:36:48;100688.88;;;23.06;100.00
58955;BME280;45815;52.334;5.024;2023-07-29T12:39:27;100692.75;;;23.22;100.00
58955;BME280;45815;52.334;5.024;2023-07-29T12:41:54;100689.91;;;23.77;100.00
58955;BME280;45815;52.334;5.024;2023-07-29T12:44:20;100692.72;;;24.19;100.00
58955;BME280;45815;52.334;5.024;2023-07-29T12:46:47;100683.41;;;24.52;100.00
58955;BME280;45815;52.334;5.024;2023-07-29T12:49:13;100686.47;;;24.85;100.00
58955;BME280;45815;52.334;5.024;2023-07-29T12:51:38;100684.31;;;24.93;100.00
58955;BME280;45815;52.334;5.024;2023-07-29T12:54:04;100673.03;;;24.85;100.00
58955;BME280;45815;52.334;5.024;2023-07-29T12:56:30;100675.00;;;25.22;100.00